Time;durP1;ratioP1;P1;durP2;ratioP2;P2;SDS_P1;SDS_P2;PMS_P1;PMS_P2;Temp;Humidity;BMP_temperature;BMP_pressure;BME280_temperature;BME280_humidity;BME280_pressure;Samples;Min_cycle;Max_cycle;Signal;HPM_P1;HPM_P2
2022/12/06 00:04:01;;;;;;;4.00;2.30;;;;;;;-4.60;66.18;100080.91;4937505;28;20041;-61
2022/12/06 00:07:05;;;;;;;9.73;3.00;;;;;;;-4.46;66.40;100082.34;4871979;28;20045;-60
2022/12/06 00:09:49;;;;;;;7.15;3.00;;;;;;;-4.19;65.56;100074.09;4850354;28;20049;-61
2022/12/06 00:12:37;;;;;;;6.28;3.03;;;;;;;-4.03;64.92;100066.19;4898111;28;20057;-61
2022/12/06 00:15:28;;;;;;;8.50;3.15;;;;;;;-4.06;64.47;100066.09;4916006;28;20057;-61
2022/12/06 00:18:09;;;;;;;8.25;2.78;;;;;;;-3.98;64.17;100064.69;4898057;28;20048;-60
2022/12/06 00:20:50;;;;;;;5.88;3.13;;;;;;;-4.04;64.34;100059.38;4910127;28;20310;-61
2022/12/06 00:26:26;;;;;;;7.50;2.90;;;;;;;-4.08;64.65;100048.97;4899443;28;20048;-61
2022/12/06 00:29:20;;;;;;;8.50;2.70;;;;;;;-3.94;64.81;100053.81;4912082;28;20067;-60
2022/12/06 00:32:20;;;;;;;5.15;2.88;;;;;;;-3.82;65.15;100057.63;4904096;28;20260;-61
2022/12/06 00:35:13;;;;;;;7.13;2.85;;;;;;;-3.67;64.57;100060.75;4907137;28;20041;-60
2022/12/06 00:38:04;;;;;;;6.20;2.75;;;;;;;-3.71;64.76;100048.69;4874782;28;20612;-61
2022/12/06 00:41:02;;;;;;;11.15;2.90;;;;;;;-3.76;64.93;100040.00;4890401;28;20040;-61
2022/12/06 00:44:05;;;;;;;8.10;2.55;;;;;;;-4.68;65.47;99893.63;4893348;28;20068;-60
2022/12/06 00:46:52;;;;;;;7.82;2.53;;;;;;;-3.70;65.89;100042.75;4871254;28;20041;-62
2022/12/06 00:53:06;;;;;;;13.43;3.92;;;;;;;-3.62;66.51;100036.28;4884139;28;20053;-61
2022/12/06 00:55:46;;;;;;;9.93;4.18;;;;;;;-3.44;66.49;100037.72;4918733;28;20075;-60
2022/12/06 00:58:39;;;;;;;10.57;3.20;;;;;;;-3.28;65.77;100024.69;4921491;28;20067;-61
2022/12/06 01:01:27;;;;;;;10.15;3.75;;;;;;;-3.48;65.87;99993.34;4940837;28;20473;-61
2022/12/06 01:04:21;;;;;;;9.00;3.50;;;;;;;-3.31;66.26;100009.28;4924876;28;20072;-60
2022/12/06 01:07:10;;;;;;;9.45;3.50;;;;;;;-3.28;65.76;100017.91;4912985;28;20112;-60
2022/12/06 01:10:16;;;;;;;9.65;3.50;;;;;;;-3.25;66.32;100006.91;4936222;28;20056;-60
2022/12/06 01:12:56;;;;;;;11.88;4.13;;;;;;;-3.39;66.21;100010.69;4919842;28;20097;-60
2022/12/06 01:15:50;;;;;;;8.73;3.15;;;;;;;-3.44;66.94;100007.97;4926039;28;20209;-60
2022/12/06 01:18:47;;;;;;;11.30;4.13;;;;;;;-3.37;67.56;99988.59;4882976;28;20063;-60
2022/12/06 01:21:32;;;;;;;10.30;3.28;;;;;;;-4.15;67.50;99876.91;4914840;28;20058;-60
2022/12/06 01:24:25;;;;;;;18.83;3.53;;;;;;;-3.44;67.99;99991.75;4892309;28;20052;-61
2022/12/06 01:30:00;;;;;;;11.98;4.00;;;;;;;-3.56;68.10;99993.06;4911994;28;20474;-61
2022/12/06 01:32:38;;;;;;;10.23;4.00;;;;;;;-3.64;68.45;99980.81;4908217;28;20099;-60
2022/12/06 01:35:29;;;;;;;7.40;3.50;;;;;;;-3.67;69.10;99963.72;4904598;28;20045;-61
2022/12/06 01:38:26;;;;;;;11.05;3.45;;;;;;;-3.50;68.76;99967.72;4853257;28;20038;-60
2022/12/06 01:40:58;;;;;;;6.55;3.25;;;;;;;-3.54;68.73;99960.81;4837206;28;20091;-60
2022/12/06 01:47:02;;;;;;;10.95;3.33;;;;;;;-3.25;68.93;99943.03;4847140;28;20056;-59
2022/12/06 01:50:01;;;;;;;8.27;3.20;;;;;;;-3.16;68.85;99945.91;4818736;28;20053;-60
2022/12/06 01:52:47;;;;;;;8.75;3.30;;;;;;;-3.22;68.50;99925.28;4789425;29;20071;-59
2022/12/06 01:55:30;;;;;;;12.93;3.58;;;;;;;-3.22;68.42;99932.94;4827799;28;20179;-59
2022/12/06 01:58:19;;;;;;;9.07;3.30;;;;;;;-3.08;68.18;99931.69;4854356;28;20066;-60
2022/12/06 02:04:33;;;;;;;6.97;3.30;;;;;;;-3.25;68.19;99914.94;4839054;28;20171;-60
2022/12/06 02:10:15;;;;;;;8.85;3.90;;;;;;;-2.91;67.82;99928.84;4830673;28;20090;-60
2022/12/06 02:19:23;;;;;;;8.48;3.13;;;;;;;-2.57;65.63;99915.44;4876375;28;19971;-60
2022/12/06 02:22:16;;;;;;;6.00;2.35;;;;;;;-2.59;62.76;99913.66;4929927;28;20088;-59
2022/12/06 02:25:28;;;;;;;7.15;2.33;;;;;;;-2.59;61.56;99906.84;4930780;28;20104;-59
2022/12/06 02:28:46;;;;;;;6.97;2.38;;;;;;;-2.68;61.48;99879.25;4898717;28;20037;-59
2022/12/06 02:31:33;;;;;;;6.50;2.30;;;;;;;-2.63;60.27;99900.72;4918531;28;20044;-60
2022/12/06 02:37:20;;;;;;;6.00;2.40;;;;;;;-2.72;60.50;99895.34;4929011;28;20207;-60
2022/12/06 02:40:10;;;;;;;8.95;2.65;;;;;;;-2.73;61.29;99892.75;4890415;28;20048;-60
2022/12/06 02:42:58;;;;;;;9.73;2.70;;;;;;;-2.72;61.14;99880.00;4876204;28;20222;-60
2022/12/06 02:45:41;;;;;;;9.60;2.60;;;;;;;-2.71;61.79;99881.75;4906177;28;20049;-59
2022/12/06 02:48:28;;;;;;;7.57;2.45;;;;;;;-2.76;62.30;99862.81;4891666;28;20050;-60
2022/12/06 02:51:26;;;;;;;6.80;2.60;;;;;;;-2.68;62.25;99851.13;4923836;28;20036;-60
2022/12/06 02:57:04;;;;;;;9.00;2.90;;;;;;;-2.69;62.76;99864.75;4903095;28;20280;-58
2022/12/06 03:00:00;;;;;;;5.35;2.75;;;;;;;-2.71;63.03;99845.94;4895077;28;20069;-59
2022/12/06 03:02:45;;;;;;;7.50;2.67;;;;;;;-2.56;62.33;99852.34;4900905;28;20050;-60
2022/12/06 03:05:52;;;;;;;4.57;2.40;;;;;;;-2.56;61.23;99844.66;4838980;28;20044;-59
2022/12/06 03:11:36;;;;;;;4.13;2.60;;;;;;;-2.64;61.49;99832.50;4906871;28;20265;-59
2022/12/06 03:14:17;;;;;;;6.57;2.42;;;;;;;-2.57;60.89;99827.56;4923665;28;20065;-59
2022/12/06 03:17:12;;;;;;;7.05;2.90;;;;;;;-2.59;60.35;99814.75;4916252;28;20501;-60
2022/12/06 03:20:13;;;;;;;9.85;2.60;;;;;;;-2.70;60.65;99796.50;4945132;28;20314;-58
2022/12/06 03:23:18;;;;;;;8.05;2.80;;;;;;;-2.64;61.08;99806.94;4951431;28;20048;-60
2022/12/06 03:26:04;;;;;;;4.25;2.55;;;;;;;-2.54;60.92;99807.22;4878377;28;20045;-60
2022/12/06 03:28:49;;;;;;;8.77;2.67;;;;;;;-2.73;60.66;99791.31;4905180;28;20257;-59
2022/12/06 03:31:43;;;;;;;7.38;2.80;;;;;;;-2.66;60.71;99798.34;4910840;28;20053;-59
2022/12/06 03:34:38;;;;;;;5.55;2.97;;;;;;;-2.68;60.80;99787.19;4927659;28;20048;-59
2022/12/06 03:37:33;;;;;;;6.45;2.47;;;;;;;-2.62;60.84;99792.50;4888453;28;20045;-59
2022/12/06 03:40:28;;;;;;;9.07;2.47;;;;;;;-2.58;60.93;99784.91;4904103;28;20040;-59
2022/12/06 03:43:10;;;;;;;6.18;2.03;;;;;;;-2.55;60.70;99800.34;4875706;28;20344;-58
2022/12/06 03:45:53;;;;;;;5.85;2.80;;;;;;;-2.61;60.96;99795.94;4923164;28;20052;-61
2022/12/06 03:51:36;;;;;;;8.07;2.95;;;;;;;-2.56;61.49;99783.28;4846163;28;20069;-61
2022/12/06 03:54:20;;;;;;;8.32;2.65;;;;;;;-2.50;61.40;99786.00;4854007;28;20045;-61
2022/12/06 03:57:23;;;;;;;6.35;2.65;;;;;;;-2.34;61.53;99775.38;4914928;28;20052;-61
2022/12/06 04:00:13;;;;;;;8.60;3.30;;;;;;;-3.15;61.49;99658.84;4923930;28;20049;-59
2022/12/06 04:03:06;;;;;;;9.65;2.63;;;;;;;-2.82;61.62;99765.50;4986308;28;20194;-61
2022/12/06 04:05:46;;;;;;;8.20;2.42;;;;;;;-2.91;61.97;99770.31;4886283;28;20112;-61
2022/12/06 04:08:22;;;;;;;9.77;3.22;;;;;;;-3.14;62.44;99762.84;4942155;28;20120;-61
2022/12/06 04:11:10;;;;;;;5.40;2.60;;;;;;;-3.21;62.89;99766.03;4932295;28;20112;-59
2022/12/06 04:14:05;;;;;;;3.15;1.90;;;;;;;-3.37;63.89;99769.78;4926952;28;20221;-60
2022/12/06 04:19:40;;;;;;;6.18;2.45;;;;;;;-3.43;64.51;99763.63;4884912;28;20049;-62
2022/12/06 04:25:24;;;;;;;9.80;3.10;;;;;;;-3.28;65.18;99749.63;4906055;28;20122;-60
2022/12/06 04:39:57;;;;;;;8.88;2.95;;;;;;;-3.38;64.99;99741.63;4922486;28;20053;-61
2022/12/06 04:45:38;;;;;;;8.82;2.70;;;;;;;-3.39;64.70;99719.47;4920742;28;20051;-62
2022/12/06 04:48:26;;;;;;;8.05;2.58;;;;;;;-3.11;64.77;99741.63;4931988;28;20045;-61
2022/12/06 04:51:15;;;;;;;9.45;2.72;;;;;;;-2.96;64.48;99730.97;4837360;28;20048;-62
2022/12/06 04:54:17;;;;;;;5.68;2.60;;;;;;;-2.99;64.48;99720.66;4917274;28;20061;-61
2022/12/06 04:57:01;;;;;;;7.15;2.50;;;;;;;-3.10;65.06;99717.78;4906791;28;20054;-61
2022/12/06 05:00:06;;;;;;;9.75;2.67;;;;;;;-3.27;64.70;99709.59;4844481;28;20038;-61
2022/12/06 05:02:47;;;;;;;5.85;2.83;;;;;;;-3.45;64.93;99714.16;4877171;28;20038;-62
2022/12/06 05:05:53;;;;;;;8.93;2.90;;;;;;;-3.52;64.78;99708.88;4863554;28;20335;-62
2022/12/06 05:08:45;;;;;;;9.27;2.50;;;;;;;-3.51;65.10;99705.50;4861215;28;20055;-61
2022/12/06 05:11:38;;;;;;;4.22;2.38;;;;;;;-3.52;64.92;99698.66;4867180;28;20146;-61
2022/12/06 05:14:23;;;;;;;7.55;2.55;;;;;;;-3.52;64.72;99707.97;4839005;28;20043;-61
2022/12/06 05:17:07;;;;;;;8.25;2.30;;;;;;;-3.56;64.86;99690.84;4865925;28;20041;-61
2022/12/06 05:19:59;;;;;;;8.35;2.30;;;;;;;-3.65;64.26;99701.63;4801748;28;21176;-60
2022/12/06 05:22:43;;;;;;;8.40;3.25;;;;;;;-3.83;64.78;99707.03;4807693;28;20047;-62
2022/12/06 05:25:44;;;;;;;9.32;2.90;;;;;;;-3.87;65.48;99705.19;4865490;28;20038;-62
2022/12/06 05:28:52;;;;;;;5.07;2.30;;;;;;;-3.83;65.43;99713.81;4835579;28;20058;-61
2022/12/06 05:31:28;;;;;;;5.10;2.67;;;;;;;-4.00;65.60;99688.59;4869483;28;20052;-61
2022/12/06 05:34:13;;;;;;;4.93;2.30;;;;;;;-4.06;65.88;99660.34;4864689;28;20058;-62
2022/12/06 05:40:02;;;;;;;8.10;2.28;;;;;;;-3.67;65.97;99698.16;4862224;28;20042;-60
2022/12/06 05:43:17;;;;;;;4.50;2.45;;;;;;;-3.75;66.03;99704.72;4836361;28;20384;-60
2022/12/06 05:46:08;;;;;;;6.50;2.15;;;;;;;-3.85;66.05;99712.91;4926350;28;20092;-60
2022/12/06 05:51:51;;;;;;;6.97;2.75;;;;;;;-3.99;66.44;99715.88;4869036;28;20258;-60
2022/12/06 05:54:36;;;;;;;5.47;2.30;;;;;;;-4.03;66.79;99739.53;4916007;28;20045;-60
2022/12/06 05:57:40;;;;;;;6.07;2.08;;;;;;;-4.00;67.42;99729.44;4897546;28;20232;-60
2022/12/06 06:00:32;;;;;;;8.48;2.72;;;;;;;-3.99;67.95;99735.44;4906344;28;20045;-61
2022/12/06 06:03:43;;;;;;;7.55;2.53;;;;;;;-4.01;67.97;99727.72;4883047;28;20528;-61
2022/12/06 06:06:30;;;;;;;7.55;3.08;;;;;;;-3.96;68.46;99738.09;4736916;29;20052;-61
2022/12/06 06:09:33;;;;;;;6.72;2.55;;;;;;;-3.99;68.46;99736.28;4799337;28;20114;-60
2022/12/06 06:12:14;;;;;;;6.25;2.30;;;;;;;-4.01;68.82;99735.38;4788930;28;20044;-61
2022/12/06 06:14:54;;;;;;;6.78;2.38;;;;;;;-4.03;68.68;99734.44;4817354;28;20050;-61
2022/12/06 06:17:50;;;;;;;5.13;2.53;;;;;;;-4.05;69.01;99730.97;4780056;28;20044;-61
2022/12/06 06:20:30;;;;;;;9.55;3.17;;;;;;;-4.10;69.06;99732.50;4811595;28;20039;-61
2022/12/06 06:23:26;;;;;;;7.70;2.65;;;;;;;-4.14;69.02;99738.34;4775326;28;20059;-61
2022/12/06 06:26:12;;;;;;;5.15;3.08;;;;;;;-4.17;69.39;99746.75;4800953;28;20475;-61
2022/12/06 06:29:02;;;;;;;7.93;2.58;;;;;;;-4.21;70.14;99738.94;4820675;28;20092;-61
2022/12/06 06:31:39;;;;;;;9.40;2.83;;;;;;;-4.50;70.27;99685.22;4804907;29;20051;-61
2022/12/06 06:34:22;;;;;;;7.97;3.20;;;;;;;-4.14;70.58;99746.00;4806705;28;20527;-61
2022/12/06 06:40:03;;;;;;;10.13;4.20;;;;;;;-4.32;71.31;99740.22;4807507;28;20059;-61
2022/12/06 06:42:43;;;;;;;15.98;5.60;;;;;;;-4.37;71.86;99722.22;4776121;28;20046;-61
2022/12/06 06:45:55;;;;;;;13.60;4.60;;;;;;;-4.57;72.33;99714.75;4823275;28;20786;-62
2022/12/06 06:48:34;;;;;;;12.65;4.43;;;;;;;-4.54;72.82;99739.50;4794315;28;20728;-61
2022/12/06 06:51:33;;;;;;;23.08;7.90;;;;;;;-4.66;72.96;99718.66;4782711;28;20078;-63
2022/12/06 06:54:21;;;;;;;10.68;4.57;;;;;;;-4.72;73.50;99723.53;4818133;28;20116;-63
2022/12/06 06:56:59;;;;;;;11.45;4.50;;;;;;;-4.83;74.37;99726.56;4818088;28;20079;-62
2022/12/06 07:02:59;;;;;;;13.63;5.05;;;;;;;-5.15;76.58;99721.94;4786549;28;20052;-62
2022/12/06 07:05:37;;;;;;;34.08;10.65;;;;;;;-5.13;77.01;99726.28;4790239;28;20050;-63
2022/12/06 07:08:35;;;;;;;39.13;11.93;;;;;;;-5.17;77.34;99723.56;4800489;28;20051;-62
2022/12/06 07:14:08;;;;;;;54.22;13.93;;;;;;;-5.14;78.13;99716.03;4833482;28;20059;-63
2022/12/06 07:19:29;;;;;;;62.38;18.15;;;;;;;-4.99;78.58;99719.19;4839759;28;20082;-62
2022/12/06 07:22:11;;;;;;;37.40;11.38;;;;;;;-5.00;78.30;99719.97;4827245;28;20050;-62
2022/12/06 07:24:58;;;;;;;16.15;6.55;;;;;;;-5.03;78.73;99719.88;4799476;28;20054;-62
2022/12/06 07:27:47;;;;;;;8.60;3.95;;;;;;;-5.10;78.85;99717.91;4765080;28;20704;-63
2022/12/06 07:30:35;;;;;;;12.15;3.78;;;;;;;-5.11;79.41;99713.63;4821253;28;20047;-63
2022/12/06 07:33:13;;;;;;;9.18;3.78;;;;;;;-5.15;79.52;99707.53;4810328;28;20110;-63
2022/12/06 07:36:03;;;;;;;9.40;3.83;;;;;;;-5.15;79.85;99701.56;4811131;28;20063;-63
2022/12/06 07:47:51;;;;;;;8.40;3.30;;;;;;;-5.34;80.66;99690.72;4833743;28;20105;-62
2022/12/06 07:51:02;;;;;;;6.78;3.53;;;;;;;-5.26;81.04;99712.22;4841474;28;20070;-63
2022/12/06 07:54:02;;;;;;;9.57;3.47;;;;;;;-5.47;81.60;99676.63;4835933;28;20073;-63
2022/12/06 07:57:20;;;;;;;11.25;3.13;;;;;;;-5.41;82.35;99678.56;4804303;28;20057;-60
2022/12/06 08:03:43;;;;;;;14.27;4.35;;;;;;;-5.41;83.32;99663.28;4886414;28;20048;-61
2022/12/06 08:10:28;;;;;;;10.82;3.63;;;;;;;-5.17;84.26;99690.47;4820308;28;20055;-59
2022/12/06 08:13:33;;;;;;;13.43;5.28;;;;;;;-5.06;84.41;99717.22;4789034;28;20042;-61
2022/12/06 08:16:19;;;;;;;15.10;6.32;;;;;;;-5.06;84.58;99704.47;4812613;28;20051;-60
2022/12/06 08:21:45;;;;;;;19.83;7.13;;;;;;;-5.08;85.19;99706.09;4830872;28;20316;-61
2022/12/06 08:24:34;;;;;;;13.65;5.47;;;;;;;-5.10;85.04;99700.06;4828548;28;20074;-61
2022/12/06 08:27:15;;;;;;;17.83;6.70;;;;;;;-5.20;85.07;99694.63;4821461;28;20046;-60
2022/12/06 08:30:01;;;;;;;14.73;7.30;;;;;;;-5.17;85.23;99703.19;4833605;28;20055;-60
2022/12/06 08:32:54;;;;;;;17.27;7.75;;;;;;;-5.33;84.90;99702.63;4810191;28;20089;-61
2022/12/06 08:38:19;;;;;;;34.28;11.48;;;;;;;-5.31;85.55;99716.28;4879253;28;20143;-59
2022/12/06 08:47:34;;;;;;;9.98;4.68;;;;;;;-5.35;86.23;99729.69;4882047;28;20063;-61
2022/12/06 08:50:29;;;;;;;8.07;4.22;;;;;;;-5.31;86.61;99723.94;4924914;28;20049;-62
2022/12/06 08:53:10;;;;;;;9.88;4.10;;;;;;;-5.26;86.67;99730.06;4909009;28;20046;-60
2022/12/06 08:55:43;;;;;;;7.43;3.60;;;;;;;-5.28;86.68;99718.94;4933798;28;20040;-61
2022/12/06 08:59:03;;;;;;;8.37;3.57;;;;;;;-5.18;86.85;99730.34;4895057;28;20207;-59
2022/12/06 09:01:59;;;;;;;9.25;3.45;;;;;;;-5.23;87.25;99735.25;4923820;28;20329;-60
2022/12/06 09:05:29;;;;;;;7.57;3.55;;;;;;;-5.33;87.32;99723.00;4904084;28;20052;-60
2022/12/06 09:08:42;;;;;;;9.23;3.60;;;;;;;-5.16;87.80;99735.50;4920912;28;20052;-60
2022/12/06 09:11:54;;;;;;;9.90;3.30;;;;;;;-5.43;87.64;99692.91;4861327;28;20145;-60
2022/12/06 09:19:37;;;;;;;6.82;3.10;;;;;;;-5.09;87.74;99743.44;4679352;29;20053;-59
2022/12/06 09:22:11;;;;;;;10.05;3.13;;;;;;;-5.08;87.52;99739.22;4708496;29;20058;-60
2022/12/06 09:24:55;;;;;;;11.77;3.70;;;;;;;-5.14;87.52;99724.56;4731411;29;20976;-59
2022/12/06 09:27:49;;;;;;;9.98;3.33;;;;;;;-5.15;87.55;99707.53;4743423;29;20070;-58
2022/12/06 09:30:51;;;;;;;9.85;3.00;;;;;;;-5.10;86.95;99730.63;4710439;29;20109;-61
2022/12/06 09:33:31;;;;;;;8.35;3.30;;;;;;;-5.07;87.17;99718.00;4702752;29;20129;-61
2022/12/06 09:36:42;;;;;;;10.02;3.30;;;;;;;-5.14;86.71;99710.94;4726232;29;20074;-60
2022/12/06 09:43:27;;;;;;;10.77;2.88;;;;;;;-4.97;86.45;99711.56;4711564;29;20067;-60
2022/12/06 09:49:54;;;;;;;6.85;3.00;;;;;;;-4.92;85.41;99710.94;4731027;29;20082;-61
2022/12/06 09:53:04;;;;;;;6.68;4.00;;;;;;;-4.90;84.85;99714.41;4760402;28;20055;-61
2022/12/06 09:55:59;;;;;;;;;;;;;;;-4.89;85.39;99716.16;4875806;28;20292;-61
2022/12/06 09:59:11;;;;;;;7.43;3.17;;;;;;;-4.84;85.60;99719.75;4901320;28;20236;-61
2022/12/06 10:02:30;;;;;;;4.47;2.88;;;;;;;-4.80;85.45;99718.16;4877638;28;20073;-60
2022/12/06 10:05:50;;;;;;;9.60;3.60;;;;;;;-4.89;85.90;99695.78;4907717;28;20060;-61
2022/12/06 10:09:19;;;;;;;8.25;3.22;;;;;;;-4.79;85.69;99692.75;4909507;28;20110;-60
2022/12/06 10:18:58;;;;;;;11.02;3.78;;;;;;;-4.61;85.38;99696.75;4915737;28;20045;-61
2022/12/06 10:22:03;;;;;;;10.85;3.22;;;;;;;-5.35;85.39;99576.91;4891178;28;20112;-59
2022/12/06 10:25:07;;;;;;;6.82;3.22;;;;;;;-4.63;85.46;99693.28;4816819;28;20044;-59
2022/12/06 10:28:25;;;;;;;6.18;2.90;;;;;;;-4.71;85.57;99700.66;4872251;28;20301;-60
2022/12/06 10:34:41;;;;;;;13.90;4.35;;;;;;;-4.75;85.18;99709.00;4874034;28;20057;-61
2022/12/06 10:37:35;;;;;;;13.93;4.10;;;;;;;-4.70;85.66;99706.63;4904636;28;20048;-60
2022/12/06 10:40:26;;;;;;;6.72;3.47;;;;;;;-4.68;85.89;99705.00;4954153;28;20060;-61
2022/12/06 10:49:55;;;;;;;7.10;3.08;;;;;;;-4.92;84.47;99695.63;4892549;28;20127;-62
2022/12/06 10:52:58;;;;;;;9.70;3.17;;;;;;;-5.26;84.37;99651.13;4859894;28;20514;-61
2022/12/06 10:56:06;;;;;;;;;;;;;;;;;;;;;
2022/12/06 10:59:28;;;;;;;9.02;3.70;;;;;;;-5.15;83.15;99686.28;4852409;28;20103;-61
2022/12/06 11:05:31;;;;;;;9.82;3.90;;;;;;;-5.39;83.04;99646.38;4906762;28;20050;-61
2022/12/06 11:08:40;;;;;;;;;;;;;;;;;;;;;
2022/12/06 11:11:44;;;;;;;10.57;3.05;;;;;;;-5.16;82.72;99685.44;4913209;28;20042;-61
2022/12/06 11:18:00;;;;;;;11.07;4.50;;;;;;;-5.39;82.01;99661.66;4842559;28;20116;-61
2022/12/06 11:21:06;;;;;;;5.73;2.90;;;;;;;-5.18;82.40;99687.06;4864910;28;20052;-61
2022/12/06 11:24:20;;;;;;;10.43;4.85;;;;;;;-5.25;81.86;99691.03;4846961;28;20270;-61
2022/12/06 11:27:23;;;;;;;9.95;4.28;;;;;;;-5.94;81.88;99570.50;4916890;28;20096;-61
2022/12/06 11:33:05;;;;;;;7.05;3.10;;;;;;;-5.27;81.66;99682.47;4894187;28;20060;-61
2022/12/06 11:35:49;;;;;;;8.63;3.33;;;;;;;-5.41;81.75;99668.38;4916191;28;20075;-62
2022/12/06 11:38:47;;;;;;;8.85;4.03;;;;;;;-5.34;81.37;99675.44;4901215;28;20041;-60
2022/12/06 11:41:31;;;;;;;11.05;4.78;;;;;;;-5.51;81.50;99646.78;4910728;28;20186;-61
2022/12/06 11:44:24;;;;;;;89.47;33.35;;;;;;;-5.38;81.59;99658.28;4939884;28;20285;-60
2022/12/06 11:47:21;;;;;;;123.72;44.38;;;;;;;-5.34;81.33;99665.25;4917725;28;20040;-61
2022/12/06 11:53:29;;;;;;;17.25;6.63;;;;;;;-5.35;81.29;99673.69;4922739;28;20051;-60
2022/12/06 11:56:29;;;;;;;26.05;7.68;;;;;;;-5.38;81.96;99687.97;4915224;28;20085;-61
2022/12/06 11:59:57;;;;;;;32.10;9.90;;;;;;;-5.69;81.75;99634.22;4894593;28;20319;-61
2022/12/06 12:02:50;;;;;;;25.63;9.88;;;;;;;-5.34;82.07;99690.72;4907458;28;20310;-61
2022/12/06 12:05:47;;;;;;;48.33;15.50;;;;;;;-5.37;81.89;99695.66;4925616;28;20136;-61
2022/12/06 12:11:27;;;;;;;19.35;5.65;;;;;;;-6.01;82.55;99576.19;4902948;28;20045;-60
2022/12/06 12:17:30;;;;;;;29.98;9.68;;;;;;;-5.37;82.43;99674.44;4870511;28;20048;-60
2022/12/06 12:20:48;;;;;;;21.35;7.13;;;;;;;-5.26;82.74;99676.56;4856577;28;20376;-60
2022/12/06 12:31:18;;;;;;;6.15;2.83;;;;;;;-5.27;83.46;99661.22;4872906;28;20048;-60
2022/12/06 12:35:14;;;;;;;6.60;3.13;;;;;;;-5.04;83.00;99679.91;4941719;28;20052;-60
2022/12/06 12:45:19;;;;;;;8.85;2.13;;;;;;;-5.06;82.60;99673.91;4915588;28;20049;-61
2022/12/06 12:48:39;;;;;;;5.88;2.30;;;;;;;-5.03;83.00;99681.66;4869865;28;20072;-62
2022/12/06 13:06:43;;;;;;;6.57;2.55;;;;;;;-4.82;82.50;99682.44;4848180;28;20054;-61
2022/12/06 13:10:31;;;;;;;4.72;2.00;;;;;;;-4.96;82.50;99658.13;4842110;28;20106;-62
2022/12/06 13:16:27;;;;;;;6.80;2.20;;;;;;;-5.68;82.14;99521.44;4842774;28;20052;-62
2022/12/06 13:19:00;;;;;;;7.85;3.55;;;;;;;-4.74;81.97;99669.06;4851169;28;20045;-62
2022/12/06 13:22:44;;;;;;;9.52;4.05;;;;;;;-4.72;81.92;99677.66;4860928;28;20615;-62
2022/12/06 13:25:32;;;;;;;9.48;3.10;;;;;;;-4.79;81.26;99672.34;4867017;28;20048;-62
2022/12/06 13:28:29;;;;;;;18.70;6.20;;;;;;;-4.83;81.18;99665.41;4779443;28;20145;-62
2022/12/06 13:31:58;;;;;;;9.30;3.75;;;;;;;-4.82;81.69;99677.34;4854298;28;20070;-61
2022/12/06 13:35:16;;;;;;;5.57;2.40;;;;;;;-4.85;81.89;99682.31;4828122;28;20052;-60
2022/12/06 13:38:32;;;;;;;8.45;2.72;;;;;;;-4.84;82.04;99663.66;4929529;28;20037;-62
2022/12/06 13:45:04;;;;;;;11.02;3.55;;;;;;;-4.86;82.00;99655.09;4899543;28;20048;-62
2022/12/06 13:48:05;;;;;;;6.70;3.20;;;;;;;-4.81;81.91;99673.97;4914996;28;20223;-61
2022/12/06 13:55:31;;;;;;;9.82;3.60;;;;;;;-4.87;81.96;99663.53;4860493;28;20293;-63
2022/12/06 13:58:48;;;;;;;8.15;2.80;;;;;;;-4.86;82.42;99665.28;4798307;28;20247;-61
2022/12/06 14:02:01;;;;;;;8.40;2.63;;;;;;;-4.88;82.97;99651.63;4847640;28;20063;-62
2022/12/06 14:08:58;;;;;;;7.32;2.92;;;;;;;-4.80;82.91;99660.41;4835944;28;20374;-62
2022/12/06 14:11:56;;;;;;;9.70;3.33;;;;;;;-5.59;83.07;99523.47;4807913;28;20275;-62
2022/12/06 14:18:31;;;;;;;7.18;2.58;;;;;;;-4.77;83.27;99660.53;4796125;29;20099;-62
2022/12/06 14:21:24;;;;;;;4.43;2.08;;;;;;;-4.71;83.77;99651.38;4783465;29;20952;-62
2022/12/06 14:24:27;;;;;;;6.50;3.17;;;;;;;-4.73;83.60;99645.34;4770582;29;20083;-63
2022/12/06 14:34:33;;;;;;;6.65;2.80;;;;;;;-5.04;84.24;99609.47;4884301;28;20053;-62
2022/12/06 14:37:33;;;;;;;6.43;2.72;;;;;;;-4.70;84.28;99645.44;4887922;28;20056;-62
2022/12/06 14:42:59;;;;;;;6.65;2.88;;;;;;;-4.75;84.55;99641.88;4877783;28;20056;-62
2022/12/06 14:43:41;;;;;;;14.48;3.63;;;;;;;-4.80;84.73;99640.00;4860420;28;20116;-61
2022/12/06 14:46:57;;;;;;;6.00;2.80;;;;;;;-5.12;84.69;99587.06;4828574;28;20041;-63
2022/12/06 14:53:24;;;;;;;8.23;2.95;;;;;;;-4.80;85.34;99624.72;4863004;28;20369;-61
2022/12/06 15:04:13;;;;;;;8.00;2.45;;;;;;;-4.81;85.77;99622.13;4756422;29;20108;-61
2022/12/06 15:07:43;;;;;;;6.70;2.83;;;;;;;-4.83;86.13;99629.72;4797435;29;20136;-60
2022/12/06 15:21:29;;;;;;;6.80;2.90;;;;;;;-4.83;86.88;99606.78;4723009;29;20077;-62
2022/12/06 15:50:14;;;;;;;7.82;2.55;;;;;;;-4.69;87.21;99601.28;4742596;29;20053;-63
2022/12/06 15:53:20;;;;;;;6.13;2.40;;;;;;;-4.72;87.13;99608.81;4725651;29;20060;-63
2022/12/06 15:56:23;;;;;;;8.88;2.97;;;;;;;-4.72;86.99;99606.28;4730940;29;20112;-61
2022/12/06 15:59:12;;;;;;;5.20;2.70;;;;;;;-5.32;86.59;99522.69;4689381;29;20298;-63
2022/12/06 16:02:01;;;;;;;8.13;4.28;;;;;;;-4.91;87.07;99590.38;4730348;29;20061;-63
2022/12/06 16:05:07;;;;;;;8.15;3.03;;;;;;;-5.08;87.12;99576.16;4744665;29;20063;-62
2022/12/06 16:10:55;;;;;;;7.22;3.10;;;;;;;-4.88;87.55;99605.75;4786977;29;20180;-62
2022/12/06 16:13:51;;;;;;;8.82;3.08;;;;;;;-5.27;88.05;99547.50;4834528;28;20058;-61
2022/12/06 16:16:39;;;;;;;10.23;4.50;;;;;;;-4.93;87.90;99602.19;4833153;28;20423;-62
2022/12/06 16:19:18;;;;;;;10.90;3.83;;;;;;;-5.02;88.62;99586.56;4881945;28;20197;-61
2022/12/06 16:22:15;;;;;;;9.43;3.47;;;;;;;-4.97;88.56;99590.13;4914156;28;20056;-62
2022/12/06 16:25:00;;;;;;;11.00;3.80;;;;;;;-5.00;88.82;99572.19;4914086;28;20143;-61
2022/12/06 16:27:43;;;;;;;10.82;3.47;;;;;;;-4.90;88.71;99598.88;4866606;28;20325;-61
2022/12/06 16:30:39;;;;;;;10.05;5.00;;;;;;;-4.90;88.80;99601.41;4907771;28;20054;-61
2022/12/06 16:33:45;;;;;;;8.77;3.65;;;;;;;-4.97;88.90;99602.88;4910379;28;20052;-61
2022/12/06 16:37:08;;;;;;;7.30;3.10;;;;;;;-5.81;88.98;99468.38;4896260;28;20049;-61
2022/12/06 16:48:26;;;;;;;5.85;3.30;;;;;;;-5.10;89.76;99598.19;4970558;28;20447;-61
2022/12/06 16:54:53;;;;;;;5.88;3.10;;;;;;;-4.99;89.53;99609.63;4906919;28;20052;-62
2022/12/06 16:57:45;;;;;;;6.10;3.17;;;;;;;-5.01;89.29;99623.97;4889437;28;20103;-61
2022/12/06 17:00:51;;;;;;;7.50;3.20;;;;;;;-5.12;88.78;99615.06;4888325;28;20050;-60
2022/12/06 17:18:58;;;;;;;8.05;2.58;;;;;;;-5.29;87.93;99622.09;4864233;28;20037;-60
2022/12/06 17:21:44;;;;;;;12.75;2.95;;;;;;;-5.27;87.99;99621.34;4915529;28;20047;-61
2022/12/06 17:24:26;;;;;;;5.30;2.83;;;;;;;-5.64;87.74;99564.00;4904848;28;20064;-60
2022/12/06 17:27:13;;;;;;;8.95;2.35;;;;;;;-5.35;87.71;99612.56;4920590;28;20463;-60
2022/12/06 17:30:07;;;;;;;4.93;2.92;;;;;;;-5.34;87.74;99619.41;4925011;28;20059;-60
2022/12/06 17:32:55;;;;;;;6.55;2.90;;;;;;;-5.33;87.88;99615.19;4908531;28;20050;-60
2022/12/06 17:38:57;;;;;;;8.35;2.55;;;;;;;-5.29;87.84;99625.53;4880188;28;20040;-60
2022/12/06 17:44:51;;;;;;;8.35;3.10;;;;;;;-5.23;87.53;99617.25;4900756;28;20271;-60
2022/12/06 17:50:25;;;;;;;6.78;2.97;;;;;;;-5.09;87.67;99602.44;4878404;28;20048;-60
2022/12/06 17:53:20;;;;;;;11.15;2.95;;;;;;;-5.22;87.30;99598.59;4884078;28;20060;-60
2022/12/06 17:55:56;;;;;;;8.52;2.97;;;;;;;-5.24;87.04;99616.38;4879335;28;20045;-60
2022/12/06 18:01:37;;;;;;;7.57;3.10;;;;;;;-5.34;87.32;99606.69;4889083;28;20104;-59
2022/12/06 18:07:35;;;;;;;6.88;3.40;;;;;;;-5.14;87.59;99621.78;4922530;28;20052;-60
2022/12/06 18:10:38;;;;;;;8.85;3.50;;;;;;;-5.34;87.29;99588.84;4882256;28;20040;-59
2022/12/06 18:13:23;;;;;;;7.68;3.55;;;;;;;-5.13;86.86;99623.53;4912635;28;20044;-60
2022/12/06 18:16:30;;;;;;;11.32;3.42;;;;;;;-5.03;87.05;99625.59;4850447;28;20060;-60
2022/12/06 18:22:18;;;;;;;7.00;3.50;;;;;;;-5.07;86.89;99639.03;4901801;28;20237;-59
2022/12/06 18:25:05;;;;;;;;;;;;;;;-5.06;86.95;99634.00;4918869;28;20076;-60
2022/12/06 18:27:56;;;;;;;8.50;4.32;;;;;;;-5.12;86.55;99640.56;4939811;28;20174;-60
2022/12/06 18:30:48;;;;;;;11.15;4.72;;;;;;;-5.28;86.87;99614.53;4906884;28;20057;-60
2022/12/06 18:33:49;;;;;;;12.15;4.32;;;;;;;-5.18;87.09;99640.34;4932921;28;20047;-60
2022/12/06 18:36:43;;;;;;;11.52;5.45;;;;;;;-5.15;86.81;99645.53;4891890;28;20047;-60
2022/12/06 18:39:39;;;;;;;15.70;5.43;;;;;;;-5.22;86.60;99640.22;4925363;28;20111;-60
2022/12/06 18:42:31;;;;;;;14.18;4.95;;;;;;;-5.26;86.76;99646.00;4929124;28;20036;-60
2022/12/06 18:45:25;;;;;;;14.35;5.50;;;;;;;-5.41;86.82;99632.72;4929332;28;20040;-60
2022/12/06 18:48:09;;;;;;;21.90;5.78;;;;;;;-5.45;86.81;99636.81;4862176;28;20041;-60